Time;durP1;ratioP1;P1;durP2;ratioP2;P2;SDS_P1;SDS_P2;PMS_P1;PMS_P2;Temp;Humidity;BMP_temperature;BMP_pressure;BME280_temperature;BME280_humidity;BME280_pressure;Samples;Min_cycle;Max_cycle;Signal;HPM_P1;HPM_P2
2023/12/10 00:01:00;;;;;;;2.63;1.55;;;4.20;99.90;;;;;;5025012;28;20164;-87
2023/12/10 00:03:26;;;;;;;2.72;1.42;;;4.20;99.90;;;;;;5023704;28;20104;-86
2023/12/10 00:05:54;;;;;;;1.60;1.50;;;4.30;99.90;;;;;;5024414;28;20509;-94
2023/12/10 00:08:22;;;;;;;1.40;1.30;;;4.20;99.90;;;;;;5030489;28;20033;-91
2023/12/10 00:10:47;;;;;;;1.10;1.10;;;4.30;99.90;;;;;;5036099;28;20036;-90
2023/12/10 00:13:13;;;;;;;1.05;1.05;;;4.30;99.90;;;;;;5037607;28;20026;-81
2023/12/10 00:15:38;;;;;;;1.30;1.20;;;4.30;99.90;;;;;;5022861;28;20037;-85
2023/12/10 00:18:05;;;;;;;1.00;1.00;;;4.40;99.90;;;;;;5008225;28;20049;-91
2023/12/10 00:20:31;;;;;;;0.90;0.90;;;4.40;99.90;;;;;;5034054;28;20196;-90
2023/12/10 00:22:57;;;;;;;1.00;1.00;;;4.40;99.90;;;;;;5024576;28;20041;-90
2023/12/10 00:25:25;;;;;;;0.82;0.82;;;4.40;99.90;;;;;;5025295;28;20036;-88
2023/12/10 00:27:51;;;;;;;1.00;0.90;;;4.50;99.90;;;;;;5024298;28;20548;-86
2023/12/10 00:30:20;;;;;;;1.48;0.90;;;4.50;99.90;;;;;;5026356;28;20026;-87
2023/12/10 00:32:48;;;;;;;0.80;0.80;;;4.60;99.90;;;;;;5026206;28;20041;-91
2023/12/10 00:35:14;;;;;;;0.88;0.88;;;4.60;99.90;;;;;;5020498;28;20025;-90
2023/12/10 00:37:39;;;;;;;0.98;0.98;;;4.70;99.90;;;;;;5025368;28;20036;-86
2023/12/10 00:40:06;;;;;;;0.75;0.75;;;4.70;99.90;;;;;;5018594;28;20561;-89
2023/12/10 00:42:32;;;;;;;0.93;0.90;;;4.70;99.90;;;;;;5017009;28;20124;-90
2023/12/10 00:44:58;;;;;;;1.92;0.90;;;4.70;99.90;;;;;;5023524;28;20114;-91
2023/12/10 00:47:23;;;;;;;0.80;0.80;;;4.70;99.90;;;;;;5022115;28;20029;-83
2023/12/10 00:49:49;;;;;;;0.90;0.90;;;4.80;99.90;;;;;;5022098;28;20478;-91
2023/12/10 00:52:14;;;;;;;1.30;1.15;;;4.80;99.90;;;;;;5018743;28;20060;-84
2023/12/10 00:54:40;;;;;;;6.40;1.02;;;4.80;99.90;;;;;;5023236;28;20029;-83
2023/12/10 00:57:06;;;;;;;3.35;1.23;;;4.90;99.90;;;;;;5021913;28;20438;-88
2023/12/10 00:59:31;;;;;;;7.85;1.90;;;4.90;99.90;;;;;;5023548;28;20089;-87
2023/12/10 01:01:57;;;;;;;7.43;2.10;;;5.00;99.90;;;;;;5025244;28;20028;-92
2023/12/10 01:04:23;;;;;;;4.78;1.98;;;5.10;99.90;;;;;;5029484;28;20044;-83
2023/12/10 01:06:50;;;;;;;9.55;2.40;;;5.20;99.90;;;;;;5032472;28;20068;-90
2023/12/10 01:09:16;;;;;;;9.18;2.75;;;5.30;99.90;;;;;;5036808;28;20029;-83
2023/12/10 01:11:42;;;;;;;13.95;3.33;;;5.30;99.90;;;;;;5024090;28;20033;-87
2023/12/10 01:14:08;;;;;;;14.48;3.40;;;5.40;99.90;;;;;;5031357;28;20457;-87
2023/12/10 01:16:33;;;;;;;16.60;4.55;;;5.60;99.90;;;;;;5021542;28;20455;-87
2023/12/10 01:19:00;;;;;;;18.60;4.90;;;5.70;99.90;;;;;;5031007;28;20030;-88
2023/12/10 01:21:26;;;;;;;17.90;3.67;;;5.80;99.90;;;;;;5025476;28;20037;-90
2023/12/10 01:23:54;;;;;;;22.35;4.07;;;6.00;99.90;;;;;;5025893;28;20444;-87
2023/12/10 01:26:21;;;;;;;21.83;4.05;;;6.10;99.90;;;;;;5028200;28;20029;-91
2023/12/10 01:28:46;;;;;;;31.33;4.22;;;6.20;99.90;;;;;;5025491;28;20351;-87
2023/12/10 01:31:15;;;;;;;30.38;4.35;;;6.30;99.90;;;;;;5024638;28;20044;-89
2023/12/10 01:33:41;;;;;;;22.38;3.60;;;6.40;99.90;;;;;;5026282;28;20053;-87
2023/12/10 01:36:08;;;;;;;19.45;3.70;;;6.40;99.90;;;;;;5020049;28;20089;-87
2023/12/10 01:38:34;;;;;;;16.10;3.72;;;6.40;99.90;;;;;;5019012;28;20026;-86
2023/12/10 01:41:00;;;;;;;27.65;4.03;;;6.40;99.90;;;;;;5016182;28;20036;-86
2023/12/10 01:43:25;;;;;;;20.23;4.40;;;6.50;99.90;;;;;;5020478;28;20026;-82
2023/12/10 01:45:53;;;;;;;19.10;3.67;;;6.50;99.90;;;;;;5018316;28;20425;-85
2023/12/10 01:48:23;;;;;;;29.23;5.70;;;6.50;99.90;;;;;;5029303;28;20075;-90
2023/12/10 01:50:49;;;;;;;21.45;4.88;;;6.40;99.90;;;;;;5028400;28;20060;-87
2023/12/10 01:53:16;;;;;;;30.35;4.93;;;6.50;99.90;;;;;;5029600;28;20025;-88
2023/12/10 01:55:42;;;;;;;17.73;3.97;;;6.50;99.90;;;;;;5021070;28;20045;-85
2023/12/10 01:58:09;;;;;;;24.45;3.80;;;6.50;99.90;;;;;;5026914;28;20037;-90
2023/12/10 02:00:35;;;;;;;18.30;4.45;;;6.50;99.90;;;;;;5028799;28;20029;-89
2023/12/10 02:03:05;;;;;;;13.20;3.88;;;6.50;99.90;;;;;;5014442;28;20096;-83
2023/12/10 02:05:31;;;;;;;27.33;5.57;;;6.50;99.90;;;;;;5017536;28;20080;-83
2023/12/10 02:07:57;;;;;;;20.63;4.10;;;6.50;99.90;;;;;;5031140;28;21522;-88
2023/12/10 02:10:23;;;;;;;20.63;3.95;;;6.60;99.90;;;;;;5008246;28;20116;-84
2023/12/10 02:12:52;;;;;;;20.23;4.13;;;6.60;99.90;;;;;;5021934;28;20115;-88
2023/12/10 02:15:19;;;;;;;28.05;4.85;;;6.60;99.90;;;;;;5021493;28;20034;-88
2023/12/10 02:17:49;;;;;;;17.70;4.22;;;6.60;99.90;;;;;;5023733;28;20039;-83
2023/12/10 02:20:16;;;;;;;21.10;4.40;;;6.70;99.90;;;;;;5001295;28;20029;-84
2023/12/10 02:22:50;;;;;;;15.25;3.95;;;6.60;99.90;;;;;;5026255;28;20113;-87
2023/12/10 02:25:28;;;;;;;19.40;4.30;;;6.60;99.90;;;;;;5018388;28;20025;-89
2023/12/10 02:27:54;;;;;;;20.60;3.97;;;6.60;99.90;;;;;;5025067;28;20485;-87
2023/12/10 02:30:19;;;;;;;27.38;4.50;;;6.50;99.90;;;;;;5008687;28;20116;-88
2023/12/10 02:32:45;;;;;;;20.23;3.70;;;6.50;99.90;;;;;;5024864;28;20660;-83
2023/12/10 02:35:11;;;;;;;17.85;3.75;;;6.50;99.90;;;;;;5022234;28;20391;-85
2023/12/10 02:37:36;;;;;;;22.30;3.72;;;6.50;99.90;;;;;;5025656;28;20029;-85
2023/12/10 02:40:02;;;;;;;12.15;3.15;;;6.60;99.90;;;;;;5021750;28;20387;-85
2023/12/10 02:42:28;;;;;;;17.23;4.18;;;6.70;99.90;;;;;;5027472;28;20049;-82
2023/12/10 02:44:53;;;;;;;19.65;4.25;;;6.80;99.90;;;;;;5024914;28;20478;-83
2023/12/10 02:47:19;;;;;;;12.70;3.72;;;6.80;99.90;;;;;;5020268;28;20026;-86
2023/12/10 02:49:48;;;;;;;19.40;4.18;;;6.70;99.90;;;;;;5026600;28;20082;-88
2023/12/10 02:52:14;;;;;;;20.38;3.60;;;6.70;99.90;;;;;;5034402;28;20029;-83
2023/12/10 02:54:40;;;;;;;14.07;2.60;;;6.70;99.90;;;;;;5045139;28;20120;-82
2023/12/10 02:57:05;;;;;;;28.77;6.03;;;6.70;99.90;;;;;;5024742;28;20021;-82
2023/12/10 02:59:31;;;;;;;12.93;3.40;;;6.60;99.90;;;;;;5024847;28;20025;-89
2023/12/10 03:01:56;;;;;;;19.60;3.85;;;6.80;99.90;;;;;;5014377;28;20487;-88
2023/12/10 03:04:22;;;;;;;15.02;3.15;;;6.90;99.90;;;;;;5024846;28;20034;-87
2023/12/10 03:06:47;;;;;;;21.13;3.70;;;7.10;99.90;;;;;;5024628;28;20406;-84
2023/12/10 03:09:13;;;;;;;17.20;3.75;;;7.10;99.90;;;;;;5024278;28;20061;-89
2023/12/10 03:11:39;;;;;;;17.60;4.57;;;7.20;99.90;;;;;;5017104;28;20472;-82
2023/12/10 03:14:04;;;;;;;34.72;4.47;;;7.20;99.90;;;;;;5016399;28;20018;-81
2023/12/10 03:16:30;;;;;;;33.13;5.57;;;7.10;99.90;;;;;;5014619;28;20026;-86
2023/12/10 03:18:55;;;;;;;19.05;5.30;;;7.10;99.90;;;;;;5006151;28;20399;-83
2023/12/10 03:21:21;;;;;;;25.92;3.75;;;7.10;99.90;;;;;;5025953;28;20092;-83
2023/12/10 03:23:47;;;;;;;23.25;5.20;;;7.00;99.90;;;;;;5024586;28;20459;-85
2023/12/10 03:26:12;;;;;;;22.83;4.53;;;7.00;99.90;;;;;;5023294;28;20029;-88
2023/12/10 03:28:38;;;;;;;24.77;4.22;;;7.00;99.90;;;;;;5026640;28;20688;-85
2023/12/10 03:31:04;;;;;;;28.52;4.53;;;7.00;99.90;;;;;;5020926;28;20063;-86
2023/12/10 03:33:31;;;;;;;40.38;7.22;;;7.00;99.90;;;;;;5026232;28;20025;-83
2023/12/10 03:35:57;;;;;;;38.83;7.05;;;7.00;99.90;;;;;;5018789;28;20680;-82
2023/12/10 03:38:23;;;;;;;38.58;5.63;;;7.00;99.90;;;;;;5025516;28;20421;-83
2023/12/10 03:40:48;;;;;;;43.70;7.35;;;6.90;99.90;;;;;;5024177;28;20033;-83
2023/12/10 03:43:14;;;;;;;34.78;6.85;;;6.90;99.90;;;;;;5021105;28;20033;-84
2023/12/10 03:45:39;;;;;;;37.05;5.10;;;7.00;99.90;;;;;;5025903;28;20100;-83
2023/12/10 03:48:05;;;;;;;24.52;5.25;;;7.00;99.90;;;;;;5022453;28;20025;-86
2023/12/10 03:50:31;;;;;;;36.15;7.15;;;6.90;99.90;;;;;;5026699;28;20025;-88
2023/12/10 03:52:57;;;;;;;42.67;7.50;;;7.00;99.90;;;;;;5024319;28;20017;-92
2023/12/10 03:55:23;;;;;;;44.67;9.93;;;6.90;99.90;;;;;;5025518;28;20141;-83
2023/12/10 03:57:50;;;;;;;36.35;6.13;;;6.90;99.90;;;;;;5023083;28;20100;-84
2023/12/10 04:00:16;;;;;;;42.38;6.47;;;6.80;99.90;;;;;;5015600;28;20021;-81
2023/12/10 04:02:42;;;;;;;39.20;6.93;;;6.90;99.90;;;;;;5029986;28;20224;-82
2023/12/10 04:05:11;;;;;;;38.50;7.43;;;6.90;99.90;;;;;;5024171;28;20144;-83
2023/12/10 04:07:40;;;;;;;43.58;6.65;;;6.90;99.90;;;;;;5024829;28;20033;-81
2023/12/10 04:10:07;;;;;;;42.10;5.50;;;6.90;99.90;;;;;;5022695;28;20093;-84
2023/12/10 04:12:33;;;;;;;45.65;6.20;;;6.90;99.90;;;;;;5024611;28;20030;-88
2023/12/10 04:14:58;;;;;;;43.35;5.93;;;6.90;99.90;;;;;;5021497;28;20557;-84
2023/12/10 04:17:24;;;;;;;40.88;5.57;;;7.00;99.90;;;;;;5022284;28;20457;-82
2023/12/10 04:19:50;;;;;;;45.40;6.38;;;7.00;99.90;;;;;;5009572;28;20471;-86
2023/12/10 04:22:15;;;;;;;51.35;8.80;;;7.10;99.90;;;;;;5016596;28;20041;-81
2023/12/10 04:24:41;;;;;;;47.38;6.47;;;7.10;99.90;;;;;;5022405;28;20330;-84
2023/12/10 04:27:07;;;;;;;51.42;6.18;;;7.10;99.90;;;;;;5021862;28;20029;-81
2023/12/10 04:29:33;;;;;;;36.83;5.15;;;7.00;99.90;;;;;;5022096;28;20036;-85
2023/12/10 04:31:58;;;;;;;43.28;6.45;;;7.00;99.90;;;;;;5023711;28;20116;-84
2023/12/10 04:34:24;;;;;;;43.67;6.90;;;7.00;99.90;;;;;;5006260;28;20470;-80
2023/12/10 04:36:50;;;;;;;45.72;6.70;;;7.00;99.90;;;;;;5022544;28;20040;-86
2023/12/10 04:39:16;;;;;;;34.58;6.25;;;7.10;99.90;;;;;;5019966;28;20064;-84
2023/12/10 04:41:41;;;;;;;29.85;5.68;;;7.10;99.90;;;;;;4981130;28;1238100;-83
2023/12/10 04:44:07;;;;;;;30.40;5.80;;;7.10;99.90;;;;;;5024605;28;20021;-82
2023/12/10 04:46:33;;;;;;;34.55;4.60;;;7.10;99.90;;;;;;5028377;28;20024;-93
2023/12/10 04:48:58;;;;;;;34.67;5.03;;;7.10;99.90;;;;;;5022980;28;20037;-82
2023/12/10 04:51:24;;;;;;;45.70;6.28;;;7.00;99.90;;;;;;5022221;28;20030;-89
2023/12/10 04:53:50;;;;;;;50.42;6.47;;;7.10;99.90;;;;;;5029907;28;20029;-88
2023/12/10 04:56:17;;;;;;;43.83;5.85;;;7.10;99.90;;;;;;5023164;28;20112;-83
2023/12/10 04:58:43;;;;;;;34.97;5.43;;;7.10;99.90;;;;;;5023107;28;20463;-95
2023/12/10 05:01:09;;;;;;;45.03;7.13;;;7.10;99.90;;;;;;5025820;28;20036;-81
2023/12/10 05:03:34;;;;;;;47.03;5.47;;;7.10;99.90;;;;;;5024879;28;20025;-85
2023/12/10 05:06:01;;;;;;;25.00;5.20;;;7.00;99.90;;;;;;5024614;28;20411;-84
2023/12/10 05:08:30;;;;;;;29.25;4.75;;;7.00;99.90;;;;;;5027323;28;20025;-87
2023/12/10 05:10:55;;;;;;;33.10;6.88;;;7.10;99.90;;;;;;5024041;28;20108;-82
2023/12/10 05:13:22;;;;;;;23.05;4.00;;;7.00;99.90;;;;;;5021399;28;20083;-81
2023/12/10 05:15:48;;;;;;;42.20;5.88;;;7.00;99.90;;;;;;5022713;28;20038;-85
2023/12/10 05:18:14;;;;;;;35.45;4.72;;;6.90;99.90;;;;;;5021143;28;20029;-83
2023/12/10 05:20:40;;;;;;;27.80;5.57;;;6.80;99.90;;;;;;5021549;28;20068;-81
2023/12/10 05:23:05;;;;;;;39.65;7.07;;;6.80;99.90;;;;;;5024060;28;20041;-84
2023/12/10 05:25:31;;;;;;;40.58;5.53;;;6.70;99.90;;;;;;5016214;28;20527;-83
2023/12/10 05:27:58;;;;;;;23.83;5.03;;;6.70;99.90;;;;;;5026554;28;20037;-82
2023/12/10 05:30:23;;;;;;;43.38;5.60;;;6.60;99.90;;;;;;5020441;28;20025;-83
2023/12/10 05:32:49;;;;;;;42.38;8.63;;;6.60;99.90;;;;;;5033055;28;20639;-87
2023/12/10 05:35:15;;;;;;;33.47;4.90;;;6.70;99.90;;;;;;5031117;28;20032;-87
2023/12/10 05:37:41;;;;;;;33.47;5.10;;;6.60;99.90;;;;;;5025102;28;20040;-82
2023/12/10 05:40:08;;;;;;;31.10;5.63;;;6.80;99.90;;;;;;5025063;28;20028;-84
2023/12/10 05:42:33;;;;;;;49.53;6.70;;;6.80;99.90;;;;;;5024606;28;20045;-83
2023/12/10 05:44:59;;;;;;;36.33;6.00;;;6.80;99.90;;;;;;5021049;28;20359;-82
2023/12/10 05:47:24;;;;;;;33.72;7.13;;;6.80;99.90;;;;;;5017634;28;20025;-82
2023/12/10 05:49:51;;;;;;;40.42;5.65;;;6.80;99.90;;;;;;5015707;28;20032;-84
2023/12/10 05:52:16;;;;;;;42.10;5.57;;;6.80;99.90;;;;;;5006041;28;20147;-81
2023/12/10 05:54:42;;;;;;;42.90;7.07;;;6.70;99.90;;;;;;5013483;28;20027;-83
2023/12/10 05:57:08;;;;;;;22.77;4.65;;;6.70;99.90;;;;;;5027787;28;20033;-82
2023/12/10 05:59:35;;;;;;;41.03;5.90;;;6.70;99.90;;;;;;5025370;28;20144;-84
2023/12/10 06:02:00;;;;;;;32.33;6.65;;;6.80;99.90;;;;;;5017528;28;20123;-81
2023/12/10 06:04:29;;;;;;;33.95;5.25;;;6.70;99.90;;;;;;5024924;28;20025;-88
2023/12/10 06:06:55;;;;;;;31.83;5.60;;;6.80;99.90;;;;;;5002641;28;20064;-81
2023/12/10 06:09:20;;;;;;;38.45;5.85;;;6.90;99.90;;;;;;5020653;28;20057;-82
2023/12/10 06:11:46;;;;;;;38.97;5.88;;;6.90;99.90;;;;;;5018161;28;20029;-88
2023/12/10 06:14:15;;;;;;;31.95;4.78;;;6.90;99.90;;;;;;5017116;28;20116;-89
2023/12/10 06:16:40;;;;;;;34.45;5.18;;;6.90;99.90;;;;;;5018584;28;20036;-84
2023/12/10 06:19:06;;;;;;;48.45;8.80;;;6.90;99.90;;;;;;5021581;28;20017;-81
2023/12/10 06:21:33;;;;;;;38.13;6.22;;;7.00;99.90;;;;;;5019440;28;20526;-87
2023/12/10 06:23:59;;;;;;;40.47;6.13;;;7.00;99.90;;;;;;5021994;28;20391;-81
2023/12/10 06:26:24;;;;;;;39.88;7.45;;;7.00;99.90;;;;;;5028538;28;20033;-84
2023/12/10 06:28:50;;;;;;;30.60;5.95;;;7.00;99.90;;;;;;5021285;28;20041;-86
2023/12/10 06:31:15;;;;;;;37.00;5.45;;;6.90;99.90;;;;;;5023443;28;20025;-81
2023/12/10 06:33:43;;;;;;;38.30;5.55;;;6.90;99.90;;;;;;5026350;28;20064;-81
2023/12/10 06:36:09;;;;;;;35.05;6.97;;;6.90;99.90;;;;;;5027706;28;20064;-81
2023/12/10 06:38:37;;;;;;;27.13;4.45;;;6.80;99.90;;;;;;5037382;28;20475;-88
2023/12/10 06:41:03;;;;;;;30.05;4.78;;;6.80;99.90;;;;;;5010167;28;20026;-89
2023/12/10 06:43:28;;;;;;;25.20;5.15;;;6.80;99.90;;;;;;5028196;28;20053;-82
2023/12/10 06:46:00;;;;;;;32.15;5.32;;;6.80;99.90;;;;;;5026112;28;20490;-82
2023/12/10 06:48:26;;;;;;;36.33;5.28;;;6.80;99.90;;;;;;5027682;28;20025;-81
2023/12/10 06:50:52;;;;;;;36.25;5.90;;;6.80;99.90;;;;;;5023127;28;20958;-82
2023/12/10 06:53:18;;;;;;;27.05;5.07;;;6.80;99.90;;;;;;5027433;28;20116;-83
2023/12/10 06:55:44;;;;;;;29.52;6.65;;;6.90;99.90;;;;;;5028041;28;20049;-82
2023/12/10 06:58:10;;;;;;;49.35;7.38;;;6.80;99.90;;;;;;5023474;28;20026;-83
2023/12/10 07:00:35;;;;;;;38.40;6.82;;;6.90;99.90;;;;;;5022402;28;20038;-81
2023/12/10 07:03:01;;;;;;;42.53;5.93;;;7.00;99.90;;;;;;5024184;28;20045;-82
2023/12/10 07:05:26;;;;;;;37.70;6.45;;;7.00;99.90;;;;;;5024395;28;20025;-80
2023/12/10 07:07:52;;;;;;;33.25;6.00;;;7.00;99.90;;;;;;5023486;28;20497;-90
2023/12/10 07:10:18;;;;;;;33.15;5.88;;;7.00;99.90;;;;;;5025711;28;20034;-80
2023/12/10 07:12:44;;;;;;;27.90;5.13;;;7.00;99.90;;;;;;5017331;28;20029;-81
2023/12/10 07:15:09;;;;;;;28.65;5.32;;;6.90;99.90;;;;;;5026842;28;20041;-82
2023/12/10 07:17:36;;;;;;;30.60;5.10;;;6.90;99.90;;;;;;5008315;28;20492;-84
2023/12/10 07:20:02;;;;;;;34.20;6.03;;;6.90;99.90;;;;;;5027679;28;20306;-82
2023/12/10 07:22:27;;;;;;;28.13;4.45;;;6.90;99.90;;;;;;5011199;28;20116;-82
2023/12/10 07:24:53;;;;;;;23.25;3.85;;;6.90;99.90;;;;;;5025833;28;20216;-81
2023/12/10 07:27:18;;;;;;;26.40;5.05;;;6.90;99.90;;;;;;5026930;28;20026;-86
2023/12/10 07:29:45;;;;;;;29.98;5.78;;;6.80;99.90;;;;;;5015004;28;20038;-84
2023/12/10 07:32:11;;;;;;;28.27;5.53;;;6.90;99.90;;;;;;5026814;28;20057;-82
2023/12/10 07:34:37;;;;;;;16.98;3.60;;;6.90;99.90;;;;;;5027445;28;20219;-83
2023/12/10 07:37:03;;;;;;;26.42;5.47;;;6.90;99.90;;;;;;5009106;28;20167;-83
2023/12/10 07:39:29;;;;;;;20.95;3.85;;;6.90;99.90;;;;;;5022711;28;20382;-83
2023/12/10 07:41:54;;;;;;;14.50;3.15;;;6.90;99.90;;;;;;5011503;28;20057;-82
2023/12/10 07:44:20;;;;;;;24.20;4.00;;;6.90;99.90;;;;;;5021171;28;20033;-86
2023/12/10 07:46:46;;;;;;;22.05;4.22;;;6.90;99.90;;;;;;5005884;28;20033;-85
2023/12/10 07:49:12;;;;;;;22.15;4.60;;;6.90;99.90;;;;;;5032843;28;20034;-83
2023/12/10 07:51:37;;;;;;;23.23;3.97;;;6.90;99.90;;;;;;5025865;28;20048;-83
2023/12/10 07:54:03;;;;;;;22.20;3.05;;;7.00;99.90;;;;;;5034925;28;20017;-85
2023/12/10 07:56:30;;;;;;;18.75;3.50;;;6.90;99.90;;;;;;5020403;28;20022;-91
2023/12/10 07:58:56;;;;;;;12.48;2.92;;;6.90;99.90;;;;;;5017791;28;20485;-82
2023/12/10 08:01:21;;;;;;;19.75;3.53;;;7.00;99.90;;;;;;5009753;28;20025;-84
2023/12/10 08:03:47;;;;;;;16.05;3.70;;;7.00;99.90;;;;;;5024905;28;20037;-84
2023/12/10 08:06:13;;;;;;;18.67;2.50;;;7.00;99.90;;;;;;5027060;28;20056;-81
2023/12/10 08:08:38;;;;;;;14.23;2.67;;;7.00;99.90;;;;;;5024834;28;20021;-81
2023/12/10 08:11:05;;;;;;;15.02;2.67;;;7.00;99.90;;;;;;5017064;28;20036;-83
2023/12/10 08:13:31;;;;;;;18.70;2.65;;;7.00;99.90;;;;;;5028922;28;20032;-84
2023/12/10 08:15:56;;;;;;;20.55;3.22;;;7.00;99.90;;;;;;5017243;28;20030;-83
2023/12/10 08:18:25;;;;;;;12.63;2.63;;;7.00;99.90;;;;;;5020938;28;20403;-89
2023/12/10 08:20:51;;;;;;;9.77;1.83;;;7.00;99.90;;;;;;5025906;28;20034;-87
2023/12/10 08:23:17;;;;;;;19.80;4.38;;;7.00;99.90;;;;;;5032369;28;20068;-81
2023/12/10 08:25:43;;;;;;;16.02;3.13;;;7.10;99.90;;;;;;5020435;28;20057;-84
2023/12/10 08:28:08;;;;;;;11.73;2.60;;;7.00;99.90;;;;;;5022268;28;20034;-82
2023/12/10 08:30:34;;;;;;;16.58;2.85;;;7.00;99.90;;;;;;5031224;28;20273;-83
2023/12/10 08:33:00;;;;;;;11.82;2.50;;;7.00;99.90;;;;;;5023831;28;20839;-91
2023/12/10 08:35:25;;;;;;;9.20;1.83;;;7.00;99.90;;;;;;5022410;28;20476;-88
2023/12/10 08:37:51;;;;;;;12.15;2.60;;;7.00;99.90;;;;;;5034626;28;20398;-84
2023/12/10 08:40:16;;;;;;;8.93;2.03;;;7.00;99.90;;;;;;5030207;28;20033;-85
2023/12/10 08:42:42;;;;;;;7.85;1.80;;;7.00;99.90;;;;;;5006906;28;20041;-84
2023/12/10 08:45:08;;;;;;;8.05;2.38;;;7.00;99.90;;;;;;5024919;28;20059;-86
2023/12/10 08:47:35;;;;;;;7.07;2.03;;;7.00;99.90;;;;;;5027712;28;20021;-90
2023/12/10 08:50:02;;;;;;;12.13;2.42;;;6.90;99.90;;;;;;5017362;28;20014;-82
2023/12/10 08:52:28;;;;;;;10.70;1.83;;;6.80;99.90;;;;;;5023975;28;20034;-85
2023/12/10 08:54:54;;;;;;;7.85;2.05;;;6.90;99.90;;;;;;5004726;28;20040;-82
2023/12/10 08:57:20;;;;;;;6.97;2.15;;;6.90;99.90;;;;;;5024680;28;20029;-84
2023/12/10 08:59:47;;;;;;;7.20;1.95;;;6.90;99.90;;;;;;5024607;28;20029;-89
2023/12/10 09:02:12;;;;;;;14.90;3.45;;;6.90;99.90;;;;;;5022383;28;20064;-83
2023/12/10 09:04:38;;;;;;;7.30;1.73;;;6.90;99.90;;;;;;5018579;28;20339;-85
2023/12/10 09:07:03;;;;;;;6.90;2.10;;;7.00;99.90;;;;;;5021386;28;20029;-87
2023/12/10 09:09:29;;;;;;;6.50;1.45;;;7.00;99.90;;;;;;5020381;28;20026;-84
2023/12/10 09:11:54;;;;;;;8.00;2.40;;;6.90;99.90;;;;;;5018726;28;20037;-87
2023/12/10 09:14:21;;;;;;;5.28;1.50;;;6.90;99.90;;;;;;5012430;28;20121;-86
2023/12/10 09:16:47;;;;;;;8.48;2.22;;;7.00;99.90;;;;;;5023871;28;20034;-90
2023/12/10 09:19:14;;;;;;;10.48;2.70;;;7.00;99.90;;;;;;5023203;28;20025;-84
2023/12/10 09:21:39;;;;;;;13.55;4.07;;;6.90;99.90;;;;;;5022100;28;20041;-88
2023/12/10 09:24:05;;;;;;;9.70;2.63;;;7.00;99.90;;;;;;5024345;28;20491;-87
2023/12/10 09:26:31;;;;;;;11.93;2.25;;;7.00;99.90;;;;;;5023982;28;20032;-87
2023/12/10 09:28:57;;;;;;;8.07;2.30;;;7.00;99.90;;;;;;5024862;28;20108;-89
2023/12/10 09:31:22;;;;;;;8.95;2.13;;;7.00;99.90;;;;;;5025223;28;20032;-90
2023/12/10 09:33:48;;;;;;;6.53;1.58;;;7.00;99.90;;;;;;5006536;28;20040;-89
2023/12/10 09:36:16;;;;;;;11.43;3.17;;;7.00;99.90;;;;;;5025108;28;20014;-83
2023/12/10 09:38:45;;;;;;;9.02;1.85;;;7.00;99.90;;;;;;5024870;28;20048;-88
2023/12/10 09:41:11;;;;;;;11.30;1.67;;;7.00;99.90;;;;;;5017805;28;20033;-84
2023/12/10 09:43:36;;;;;;;9.60;1.63;;;6.90;99.90;;;;;;5024783;28;20021;-83
2023/12/10 09:46:03;;;;;;;4.90;1.73;;;6.90;99.90;;;;;;5023073;28;20498;-85
2023/12/10 09:48:30;;;;;;;5.53;1.52;;;6.90;99.90;;;;;;5024950;28;20029;-83
2023/12/10 09:50:56;;;;;;;8.90;2.17;;;6.90;99.90;;;;;;5022903;28;20026;-84
2023/12/10 09:53:22;;;;;;;4.90;1.90;;;6.90;99.90;;;;;;5019795;28;20496;-87
2023/12/10 09:55:48;;;;;;;7.85;2.25;;;6.90;99.90;;;;;;5019085;28;20026;-89
2023/12/10 09:58:14;;;;;;;2.15;1.20;;;7.00;99.90;;;;;;5020436;28;20030;-87
2023/12/10 10:00:40;;;;;;;6.40;1.70;;;7.00;99.90;;;;;;5021163;28;20479;-82
2023/12/10 10:03:06;;;;;;;7.32;2.30;;;7.10;99.90;;;;;;5024573;28;20379;-86
2023/12/10 10:05:33;;;;;;;6.30;1.52;;;7.10;99.90;;;;;;5024250;28;20437;-84
2023/12/10 10:07:59;;;;;;;8.05;1.77;;;7.10;99.90;;;;;;5019592;28;20040;-86
2023/12/10 10:10:25;;;;;;;8.32;1.52;;;7.20;99.90;;;;;;5029180;28;20130;-87
2023/12/10 10:12:56;;;;;;;6.53;1.20;;;7.30;99.90;;;;;;5024463;28;20108;-84
2023/12/10 10:15:29;;;;;;;7.60;1.70;;;7.20;99.90;;;;;;5025464;28;20033;-88
2023/12/10 10:17:56;;;;;;;6.40;1.50;;;7.20;99.90;;;;;;5012460;28;20040;-88
2023/12/10 10:20:22;;;;;;;6.15;1.60;;;7.30;99.90;;;;;;5022213;28;20281;-87
2023/12/10 10:22:48;;;;;;;4.97;1.50;;;7.30;99.90;;;;;;5018704;28;20402;-91
2023/12/10 10:25:14;;;;;;;8.73;2.10;;;7.20;99.90;;;;;;5028233;28;20040;-86
2023/12/10 10:27:40;;;;;;;5.03;1.42;;;7.30;99.90;;;;;;5013013;28;20022;-84
2023/12/10 10:30:06;;;;;;;9.13;1.80;;;7.40;99.90;;;;;;5025549;28;20048;-86
2023/12/10 10:32:34;;;;;;;9.25;2.17;;;7.40;99.90;;;;;;5024690;28;20394;-88
2023/12/10 10:35:03;;;;;;;7.07;1.83;;;7.40;99.90;;;;;;5025403;28;20025;-90
2023/12/10 10:37:29;;;;;;;7.85;1.55;;;7.50;99.90;;;;;;5016350;28;20034;-87
2023/12/10 10:39:55;;;;;;;9.73;3.05;;;7.50;99.90;;;;;;5012170;28;20327;-89
2023/12/10 10:42:20;;;;;;;9.55;1.85;;;7.50;99.90;;;;;;5027394;28;20041;-84
2023/12/10 10:44:50;;;;;;;4.70;1.88;;;7.50;99.90;;;;;;5022351;28;20030;-85
2023/12/10 10:47:18;;;;;;;4.72;1.35;;;7.50;99.90;;;;;;5020254;28;20493;-87
2023/12/10 10:49:47;;;;;;;4.97;1.50;;;7.40;99.90;;;;;;5004004;28;20181;-86
2023/12/10 10:52:24;;;;;;;6.97;1.70;;;7.40;99.90;;;;;;5022619;28;20022;-87
2023/12/10 10:54:54;;;;;;;3.17;1.42;;;7.40;99.90;;;;;;5026201;28;20156;-88
2023/12/10 10:57:36;;;;;;;10.20;1.83;;;7.40;99.90;;;;;;5027712;28;20060;-83
2023/12/10 11:00:17;;;;;;;4.07;1.42;;;7.30;99.90;;;;;;5021481;28;20053;-85
2023/12/10 11:02:46;;;;;;;3.53;1.38;;;7.30;99.90;;;;;;5005845;28;20034;-84
2023/12/10 11:05:34;;;;;;;5.43;1.50;;;7.30;99.90;;;;;;5027037;28;20033;-81
2023/12/10 11:08:00;;;;;;;6.63;2.38;;;7.20;99.90;;;;;;5025959;28;20036;-84
2023/12/10 11:10:26;;;;;;;7.75;2.03;;;7.30;99.90;;;;;;5027969;28;20026;-83
2023/12/10 11:12:53;;;;;;;6.90;1.33;;;7.20;99.90;;;;;;5023552;28;20056;-89
2023/12/10 11:15:23;;;;;;;5.95;1.58;;;7.20;99.90;;;;;;5015336;28;20030;-89
2023/12/10 11:17:58;;;;;;;9.25;1.70;;;7.20;99.90;;;;;;5014582;28;20058;-87
2023/12/10 11:20:34;;;;;;;7.25;1.65;;;7.20;99.90;;;;;;5004244;28;20426;-86
2023/12/10 11:23:03;;;;;;;;;;;7.20;99.90;;;;;;5005499;28;20033;-84
2023/12/10 11:25:31;;;;;;;5.75;1.70;;;7.20;99.90;;;;;;5024117;28;19916;-90
2023/12/10 11:27:57;;;;;;;10.18;2.35;;;7.20;99.90;;;;;;5018697;28;20061;-87
2023/12/10 11:30:24;;;;;;;13.25;2.15;;;7.20;99.90;;;;;;5026975;28;20411;-85
2023/12/10 11:32:50;;;;;;;8.45;3.10;;;7.30;99.90;;;;;;5025723;28;20033;-86
2023/12/10 11:35:15;;;;;;;8.70;4.07;;;7.20;99.90;;;;;;5027188;28;20075;-85
2023/12/10 11:37:43;;;;;;;7.60;2.35;;;7.20;99.90;;;;;;5022413;28;20025;-89
2023/12/10 11:40:09;;;;;;;14.52;2.75;;;7.20;99.90;;;;;;5012154;28;20103;-84
2023/12/10 11:42:35;;;;;;;6.63;2.13;;;7.20;99.90;;;;;;5002735;28;20050;-84
2023/12/10 11:45:01;;;;;;;9.05;2.33;;;7.30;99.90;;;;;;5006000;28;20025;-86
2023/12/10 11:47:28;;;;;;;19.17;2.40;;;7.30;99.90;;;;;;5007135;28;20074;-88
2023/12/10 11:49:55;;;;;;;8.27;1.67;;;7.30;99.90;;;;;;5006002;28;20039;-89
2023/12/10 11:52:21;;;;;;;6.28;2.03;;;7.40;99.90;;;;;;5006574;28;20026;-87
2023/12/10 11:54:47;;;;;;;11.15;2.35;;;7.40;99.90;;;;;;5004726;28;20034;-90
2023/12/10 11:57:16;;;;;;;10.90;2.72;;;7.40;99.90;;;;;;4994523;28;20030;-88
2023/12/10 11:59:48;;;;;;;7.68;1.83;;;7.50;99.90;;;;;;4996544;28;20040;-83
2023/12/10 12:02:15;;;;;;;4.65;1.73;;;7.50;99.90;;;;;;5004504;28;20045;-89
2023/12/10 12:04:41;;;;;;;4.65;1.52;;;7.50;99.90;;;;;;5003249;28;20030;-87
2023/12/10 12:07:07;;;;;;;14.75;2.67;;;7.60;99.90;;;;;;5005022;28;20534;-91
2023/12/10 12:09:33;;;;;;;8.15;1.70;;;7.60;99.90;;;;;;5005446;28;20057;-90
2023/12/10 12:11:59;;;;;;;9.52;1.88;;;7.60;99.90;;;;;;4980307;28;20487;-83
2023/12/10 12:14:25;;;;;;;7.35;1.95;;;7.70;99.90;;;;;;5006533;28;20641;-89
2023/12/10 12:16:52;;;;;;;9.00;1.95;;;7.70;99.90;;;;;;5005607;28;20475;-87
2023/12/10 12:19:27;;;;;;;12.52;2.20;;;7.70;99.90;;;;;;5007037;28;20033;-86
2023/12/10 12:21:54;;;;;;;6.38;1.85;;;7.70;99.90;;;;;;5005000;28;20840;-83
2023/12/10 12:24:20;;;;;;;13.25;2.92;;;7.70;99.90;;;;;;5006285;28;20034;-86
2023/12/10 12:26:49;;;;;;;8.05;1.83;;;7.70;99.90;;;;;;5005796;28;20479;-88
2023/12/10 12:29:15;;;;;;;9.02;2.53;;;7.70;99.90;;;;;;5005581;28;20108;-87
2023/12/10 12:31:42;;;;;;;9.48;2.55;;;7.70;99.90;;;;;;5005289;28;20130;-86
2023/12/10 12:34:08;;;;;;;14.30;2.47;;;7.70;99.90;;;;;;5003590;28;20026;-87
2023/12/10 12:36:33;;;;;;;13.80;2.40;;;7.70;99.90;;;;;;5002943;28;20476;-86
2023/12/10 12:38:59;;;;;;;10.23;2.30;;;7.70;99.90;;;;;;4987435;28;20459;-86
2023/12/10 12:41:25;;;;;;;10.50;1.98;;;7.70;99.90;;;;;;5010026;28;20049;-88
2023/12/10 12:43:51;;;;;;;7.82;1.92;;;7.70;99.90;;;;;;5025052;28;20041;-84
2023/12/10 12:46:18;;;;;;;11.75;2.38;;;7.70;99.90;;;;;;5021675;28;20029;-88